Time;durP1;ratioP1;P1;durP2;ratioP2;P2;SDS_P1;SDS_P2;PMS_P1;PMS_P2;Temp;Humidity;BMP_temperature;BMP_pressure;BME280_temperature;BME280_humidity;BME280_pressure;Samples;Min_cycle;Max_cycle;Signal;HPM_P1;HPM_P2
2023/07/30 00:00:39;;;;;;;4.75;3.70;;;;;;;18.35;87.94;97694.03;5049046;28;20446;-73
2023/07/30 00:03:05;;;;;;;6.18;4.30;;;;;;;18.00;88.36;97702.97;5046800;28;20021;-74
2023/07/30 00:05:30;;;;;;;5.05;4.05;;;;;;;17.93;89.83;97714.28;5040940;28;20048;-75
2023/07/30 00:07:56;;;;;;;5.18;4.28;;;;;;;17.85;89.99;97717.72;5043510;28;20022;-74
2023/07/30 00:10:21;;;;;;;5.55;4.03;;;;;;;17.95;90.14;97717.50;5052126;28;20024;-74
2023/07/30 00:12:47;;;;;;;5.53;4.25;;;;;;;18.14;89.19;97725.56;5042182;28;20028;-74
2023/07/30 00:15:12;;;;;;;4.78;3.90;;;;;;;18.17;89.29;97714.06;5030340;28;20037;-74
2023/07/30 00:17:38;;;;;;;4.50;4.10;;;;;;;18.39;88.29;97708.69;5044124;28;20021;-75
2023/07/30 00:20:06;;;;;;;4.20;3.80;;;;;;;18.44;87.90;97720.28;5055567;28;20036;-73
2023/07/30 00:22:31;;;;;;;5.35;3.92;;;;;;;18.61;87.22;97714.22;5050469;28;20040;-75
2023/07/30 00:24:56;;;;;;;5.85;4.35;;;;;;;18.54;87.15;97711.91;5045727;28;20029;-75
2023/07/30 00:27:22;;;;;;;4.75;4.05;;;;;;;18.59;87.24;97710.97;5058064;28;20025;-74
2023/07/30 00:29:47;;;;;;;4.75;4.00;;;;;;;18.51;86.61;97714.44;5036906;28;20036;-74
2023/07/30 00:32:15;;;;;;;4.80;3.97;;;;;;;18.35;87.51;97715.84;5038944;28;20396;-72
2023/07/30 00:34:41;;;;;;;7.60;4.18;;;;;;;18.33;88.05;97718.91;5037160;28;20037;-72
2023/07/30 00:37:06;;;;;;;8.05;3.92;;;;;;;18.37;87.88;97719.06;5039151;28;20030;-72
2023/07/30 00:39:32;;;;;;;5.18;3.80;;;;;;;18.29;88.48;97722.53;5044733;28;20030;-72
2023/07/30 00:41:57;;;;;;;4.65;3.97;;;;;;;18.41;88.34;97720.09;5043114;28;20029;-72
2023/07/30 00:44:23;;;;;;;7.13;4.00;;;;;;;18.34;88.06;97725.16;5032728;28;20048;-72
2023/07/30 00:46:49;;;;;;;7.75;3.83;;;;;;;18.33;88.55;97718.06;5041884;28;20032;-73
2023/07/30 00:49:14;;;;;;;5.63;3.80;;;;;;;18.35;88.34;97737.66;5020790;28;20461;-72
2023/07/30 00:51:40;;;;;;;5.53;3.78;;;;;;;18.31;88.56;97731.22;5038996;28;20448;-72
2023/07/30 00:54:06;;;;;;;5.80;4.22;;;;;;;18.38;87.97;97720.69;5035099;28;20044;-72
2023/07/30 00:56:32;;;;;;;5.75;4.20;;;;;;;18.38;88.17;97720.69;5022797;28;20029;-72
2023/07/30 00:58:57;;;;;;;4.63;3.80;;;;;;;18.40;87.85;97713.00;5060489;28;20043;-71
2023/07/30 01:01:24;;;;;;;5.95;3.80;;;;;;;18.52;87.67;97716.06;5041751;28;20021;-72
2023/07/30 01:03:50;;;;;;;8.82;4.25;;;;;;;18.41;89.22;97701.78;5020549;28;20476;-73
2023/07/30 01:06:15;;;;;;;4.60;3.70;;;;;;;18.45;88.92;97710.19;5022710;28;20036;-73
2023/07/30 01:08:41;;;;;;;5.07;4.20;;;;;;;18.50;88.89;97710.09;5048846;28;20041;-73
2023/07/30 01:11:07;;;;;;;5.10;4.10;;;;;;;18.24;90.83;97725.38;5022305;28;20036;-73
2023/07/30 01:13:33;;;;;;;6.20;4.10;;;;;;;18.39;91.15;97722.31;5043740;28;20060;-72
2023/07/30 01:15:59;;;;;;;4.63;4.13;;;;;;;18.42;91.27;97727.97;5014023;28;20030;-72
2023/07/30 01:18:25;;;;;;;4.82;4.32;;;;;;;18.36;91.72;97728.38;5043607;28;20476;-72
2023/07/30 01:20:53;;;;;;;4.70;4.20;;;;;;;18.41;92.37;97736.47;5047129;28;20028;-73
2023/07/30 01:23:22;;;;;;;4.63;4.22;;;;;;;18.21;92.03;97745.03;5043683;28;20049;-72
2023/07/30 01:25:50;;;;;;;6.25;4.70;;;;;;;18.29;92.12;97741.63;5042448;28;20040;-72
2023/07/30 01:28:17;;;;;;;7.13;4.22;;;;;;;18.23;93.31;97751.00;5020437;28;20403;-74
2023/07/30 01:30:45;;;;;;;5.55;4.60;;;;;;;18.15;93.98;97727.19;5020997;28;20399;-74
2023/07/30 01:33:11;;;;;;;6.15;4.10;;;;;;;18.33;92.82;97718.06;5043548;28;20037;-75
2023/07/30 01:35:37;;;;;;;5.60;4.10;;;;;;;18.32;93.01;97738.28;5043146;28;20360;-74
2023/07/30 01:38:05;;;;;;;6.55;4.15;;;;;;;18.17;93.34;97735.88;5036934;28;20059;-73
2023/07/30 01:40:34;;;;;;;6.57;4.13;;;;;;;18.26;93.79;97744.94;5050386;28;20048;-74
2023/07/30 01:43:00;;;;;;;5.47;4.10;;;;;;;18.42;93.99;97727.97;5040584;28;20064;-73
2023/07/30 01:45:25;;;;;;;4.95;4.40;;;;;;;18.01;94.51;97731.84;5049970;28;20025;-73
2023/07/30 01:47:51;;;;;;;5.30;4.25;;;;;;;18.02;95.38;97733.47;5034027;28;20140;-72
2023/07/30 01:50:17;;;;;;;5.22;4.57;;;;;;;18.00;96.28;97732.94;5033674;28;20025;-72
2023/07/30 01:52:43;;;;;;;5.75;4.47;;;;;;;18.14;95.47;97739.19;5041305;28;20086;-72
2023/07/30 01:55:11;;;;;;;5.68;4.72;;;;;;;18.07;94.79;97734.16;5055218;28;20035;-72
2023/07/30 01:57:36;;;;;;;65.72;8.77;;;;;;;17.83;96.60;97741.72;5037061;28;20083;-72
2023/07/30 02:00:03;;;;;;;6.90;4.68;;;;;;;17.77;97.80;97738.31;5047064;28;20491;-73
2023/07/30 02:02:28;;;;;;;7.47;4.75;;;;;;;17.88;97.70;97739.72;5030641;28;20080;-73
2023/07/30 02:04:54;;;;;;;5.25;4.45;;;;;;;17.88;97.61;97734.25;5046706;28;20061;-74
2023/07/30 02:07:19;;;;;;;6.15;4.40;;;;;;;18.09;96.81;97731.13;5034756;28;20087;-74
2023/07/30 02:09:44;;;;;;;5.40;4.60;;;;;;;17.86;96.89;97741.13;5031270;28;20036;-76
2023/07/30 02:12:11;;;;;;;8.00;4.13;;;;;;;17.78;97.12;97748.06;5042371;28;20047;-75
2023/07/30 02:14:36;;;;;;;7.38;4.50;;;;;;;17.90;97.43;97734.75;5037222;28;20104;-74
2023/07/30 02:17:02;;;;;;;6.53;4.50;;;;;;;17.99;97.15;97739.53;5053298;28;20056;-74
2023/07/30 02:19:27;;;;;;;5.32;4.68;;;;;;;17.88;96.58;97738.91;5037201;28;20032;-74
2023/07/30 02:21:53;;;;;;;5.93;4.43;;;;;;;17.78;97.53;97729.00;5023873;28;20044;-74
2023/07/30 02:24:18;;;;;;;6.22;4.78;;;;;;;17.81;98.35;97738.50;5041767;28;20071;-73
2023/07/30 02:26:44;;;;;;;6.18;4.65;;;;;;;17.91;98.09;97732.84;5036236;28;20642;-72
2023/07/30 02:29:09;;;;;;;6.13;4.60;;;;;;;17.73;98.74;97740.03;5041547;28;20033;-71
2023/07/30 02:31:35;;;;;;;6.85;5.00;;;;;;;17.62;99.68;97735.84;5016269;28;20514;-71
2023/07/30 02:34:00;;;;;;;5.47;4.80;;;;;;;17.70;99.20;97724.28;5032698;28;20037;-71
2023/07/30 02:36:26;;;;;;;5.53;4.95;;;;;;;17.74;98.93;97738.91;5032972;28;20033;-72
2023/07/30 02:38:51;;;;;;;6.25;5.18;;;;;;;17.74;99.16;97738.09;5016497;28;20037;-73
2023/07/30 02:41:17;;;;;;;5.03;4.43;;;;;;;17.98;97.71;97727.81;5051663;28;20047;-73
2023/07/30 02:43:42;;;;;;;5.28;4.78;;;;;;;17.86;98.22;97733.75;5040477;28;20530;-73
2023/07/30 02:46:08;;;;;;;7.03;5.25;;;;;;;17.82;97.97;97742.84;5052062;28;20033;-72
2023/07/30 02:48:33;;;;;;;5.78;4.88;;;;;;;17.97;98.02;97747.19;5053778;28;20036;-72
2023/07/30 02:50:59;;;;;;;6.97;4.60;;;;;;;17.79;98.53;97741.53;5039016;28;20863;-74
2023/07/30 02:53:24;;;;;;;5.88;5.15;;;;;;;17.83;98.66;97739.81;5052577;28;20024;-74
2023/07/30 02:55:50;;;;;;;6.90;4.72;;;;;;;17.84;98.70;97748.78;5046587;28;20040;-74
2023/07/30 02:58:15;;;;;;;6.32;4.60;;;;;;;17.73;99.89;97752.81;5061884;28;20021;-73
2023/07/30 03:00:40;;;;;;;5.88;4.53;;;;;;;17.85;98.81;97753.94;5022430;28;20135;-73
2023/07/30 03:03:06;;;;;;;6.63;4.88;;;;;;;17.79;99.07;97741.53;5052147;28;20532;-74
2023/07/30 03:05:31;;;;;;;7.60;4.82;;;;;;;17.92;98.85;97746.16;5052446;28;20033;-73
2023/07/30 03:07:57;;;;;;;6.22;4.50;;;;;;;17.91;98.82;97750.03;5040368;28;20593;-74
2023/07/30 03:10:22;;;;;;;5.32;4.82;;;;;;;17.82;99.15;97745.56;5051060;28;20587;-72
2023/07/30 03:12:48;;;;;;;6.32;4.40;;;;;;;17.78;99.30;97750.78;5035443;28;20120;-72
2023/07/30 03:15:13;;;;;;;5.43;4.43;;;;;;;17.75;100.00;97761.50;5053357;28;20047;-71
2023/07/30 03:17:39;;;;;;;6.70;5.38;;;;;;;17.71;100.00;97766.72;5052081;28;20131;-72
2023/07/30 03:20:05;;;;;;;6.68;5.03;;;;;;;17.74;100.00;97757.97;5033468;28;20041;-72
2023/07/30 03:22:33;;;;;;;6.85;5.07;;;;;;;17.72;100.00;97768.34;5027198;28;20017;-75
2023/07/30 03:24:58;;;;;;;8.32;4.85;;;;;;;17.70;100.00;97756.97;5038281;28;20086;-74
2023/07/30 03:27:24;;;;;;;6.22;5.28;;;;;;;17.76;100.00;97752.22;5040598;28;20021;-73
2023/07/30 03:29:49;;;;;;;6.00;5.10;;;;;;;17.66;100.00;97758.69;5030656;28;20029;-75
2023/07/30 03:32:15;;;;;;;8.98;5.63;;;;;;;17.58;100.00;97767.53;5035396;28;20116;-73
2023/07/30 03:34:40;;;;;;;8.15;5.10;;;;;;;17.60;100.00;97768.03;5048076;28;20392;-73
2023/07/30 03:37:06;;;;;;;6.18;5.18;;;;;;;17.55;100.00;97768.13;5026268;28;20033;-74
2023/07/30 03:39:31;;;;;;;7.97;5.25;;;;;;;17.48;100.00;97767.66;5037984;28;20048;-74
2023/07/30 03:41:56;;;;;;;7.35;5.35;;;;;;;17.56;100.00;97777.91;5040232;28;20025;-74
2023/07/30 03:44:22;;;;;;;6.32;5.35;;;;;;;17.76;100.00;97779.47;5048879;28;20102;-73
2023/07/30 03:46:47;;;;;;;8.60;5.78;;;;;;;17.71;100.00;97771.41;5051521;28;20033;-74
2023/07/30 03:49:13;;;;;;;7.80;5.40;;;;;;;17.78;100.00;97780.75;5051327;28;20437;-73
2023/07/30 03:51:38;;;;;;;6.13;5.30;;;;;;;17.75;100.00;97773.22;5034509;28;20029;-73
2023/07/30 03:54:04;;;;;;;7.80;5.30;;;;;;;17.76;100.00;97774.81;5021226;28;20379;-72
2023/07/30 03:56:30;;;;;;;6.03;5.43;;;;;;;17.89;100.00;97770.50;5039979;28;20076;-72
2023/07/30 03:58:55;;;;;;;7.85;5.47;;;;;;;17.88;100.00;97775.13;5044359;28;20044;-72
2023/07/30 04:01:20;;;;;;;6.45;5.50;;;;;;;17.87;100.00;97770.81;5031096;28;20029;-72
2023/07/30 04:03:46;;;;;;;6.60;5.45;;;;;;;17.95;100.00;97772.00;5031580;28;20028;-71
2023/07/30 04:06:11;;;;;;;6.25;5.65;;;;;;;17.85;100.00;97778.44;5040069;28;20068;-72
2023/07/30 04:08:37;;;;;;;6.95;5.00;;;;;;;17.81;100.00;97774.72;5034804;28;20142;-72
2023/07/30 04:11:03;;;;;;;8.60;5.85;;;;;;;17.84;100.00;97776.03;5023390;28;20176;-72
2023/07/30 04:13:28;;;;;;;8.50;5.20;;;;;;;17.75;100.00;97772.41;5047601;28;20525;-73
2023/07/30 04:15:54;;;;;;;7.82;5.50;;;;;;;17.71;100.00;97782.28;5041206;28;20025;-76
2023/07/30 04:18:19;;;;;;;7.55;5.47;;;;;;;17.63;100.00;97772.88;5047876;28;20158;-75
2023/07/30 04:20:45;;;;;;;6.68;5.07;;;;;;;17.69;100.00;97790.75;5018385;28;20025;-75
2023/07/30 04:23:10;;;;;;;8.20;5.55;;;;;;;17.65;100.00;97789.72;5038173;28;20037;-75
2023/07/30 04:25:36;;;;;;;6.93;5.20;;;;;;;17.74;100.00;97787.94;5024221;28;20052;-75
2023/07/30 04:28:02;;;;;;;6.35;5.40;;;;;;;17.79;100.00;97785.13;5044457;28;20030;-75
2023/07/30 04:30:27;;;;;;;6.57;5.35;;;;;;;17.84;100.00;97793.19;5025619;28;20499;-76
2023/07/30 04:32:53;;;;;;;5.93;5.38;;;;;;;17.75;100.00;97795.00;5020235;28;20108;-76
2023/07/30 04:35:19;;;;;;;6.47;5.45;;;;;;;17.88;100.00;97802.38;5022657;28;20032;-76
2023/07/30 04:37:44;;;;;;;9.30;5.68;;;;;;;17.85;100.00;97796.75;5031013;28;20028;-75
2023/07/30 04:40:10;;;;;;;5.85;5.35;;;;;;;17.85;100.00;97789.34;5039495;28;20467;-76
2023/07/30 04:42:36;;;;;;;7.20;5.60;;;;;;;17.85;100.00;97789.34;5047555;28;20391;-76
2023/07/30 04:45:02;;;;;;;5.43;4.90;;;;;;;18.00;100.00;97795.63;5023286;28;20060;-76
2023/07/30 04:47:29;;;;;;;6.38;5.30;;;;;;;18.00;100.00;97790.16;5043744;28;20029;-76
2023/07/30 04:49:54;;;;;;;5.40;4.47;;;;;;;18.02;100.00;97798.88;5023933;28;20041;-75
2023/07/30 04:52:20;;;;;;;6.97;4.93;;;;;;;18.03;100.00;97805.94;5003826;28;20120;-76
2023/07/30 04:54:45;;;;;;;6.80;4.75;;;;;;;18.01;100.00;97803.50;5023631;28;20447;-75
2023/07/30 04:57:11;;;;;;;5.35;4.63;;;;;;;17.98;100.00;97803.28;5043458;28;20040;-75
2023/07/30 04:59:36;;;;;;;6.45;5.32;;;;;;;17.99;100.00;97804.91;5039976;28;20949;-76
2023/07/30 05:02:02;;;;;;;6.00;5.22;;;;;;;17.92;100.00;97797.94;5020842;28;20041;-75
2023/07/30 05:04:28;;;;;;;6.68;5.20;;;;;;;17.90;100.00;97804.78;5023630;28;20462;-75
2023/07/30 05:06:53;;;;;;;5.65;5.05;;;;;;;17.97;100.00;97798.97;5033434;28;20044;-75
2023/07/30 05:09:19;;;;;;;6.15;5.20;;;;;;;17.97;100.00;97815.31;5040423;28;20021;-76
2023/07/30 05:11:44;;;;;;;9.05;5.28;;;;;;;17.87;100.00;97814.41;5043522;28;20037;-75
2023/07/30 05:14:09;;;;;;;6.00;4.75;;;;;;;18.11;100.00;97810.69;5038965;28;20061;-76
2023/07/30 05:16:36;;;;;;;7.57;5.03;;;;;;;18.21;100.00;97818.66;5037679;28;20041;-75
2023/07/30 05:19:01;;;;;;;5.63;5.05;;;;;;;18.22;100.00;97812.09;5042302;28;20369;-76
2023/07/30 05:21:27;;;;;;;6.72;4.82;;;;;;;18.18;100.00;97820.06;5043277;28;20132;-74
2023/07/30 05:23:52;;;;;;;7.35;5.05;;;;;;;18.31;100.00;97830.19;5021969;28;20025;-75
2023/07/30 05:26:18;;;;;;;5.22;4.72;;;;;;;18.27;100.00;97823.72;5039245;28;20091;-76
2023/07/30 05:28:43;;;;;;;6.07;5.03;;;;;;;18.15;100.00;97830.78;5012596;28;20064;-76
2023/07/30 05:31:09;;;;;;;7.07;4.88;;;;;;;18.05;100.00;97837.22;5047203;28;20041;-75
2023/07/30 05:33:34;;;;;;;6.68;4.82;;;;;;;18.14;100.00;97831.88;5041403;28;20017;-75
2023/07/30 05:36:00;;;;;;;7.18;5.47;;;;;;;18.22;100.00;97828.47;5023498;28;20037;-75
2023/07/30 05:38:25;;;;;;;5.63;5.13;;;;;;;18.24;100.00;97823.50;5036798;28;20056;-74
2023/07/30 05:40:50;;;;;;;10.18;5.10;;;;;;;18.35;99.96;97820.28;5041059;28;20044;-74
2023/07/30 05:43:16;;;;;;;6.40;5.18;;;;;;;18.48;99.43;97830.38;5062539;28;20156;-75
2023/07/30 05:45:41;;;;;;;8.60;4.97;;;;;;;18.43;98.64;97832.41;5019448;28;20060;-76
2023/07/30 05:48:07;;;;;;;5.78;5.18;;;;;;;18.44;99.52;97839.44;5053379;28;20043;-74
2023/07/30 05:50:32;;;;;;;8.27;5.07;;;;;;;18.61;98.82;97845.13;5020816;28;20033;-76
2023/07/30 05:52:58;;;;;;;5.50;5.00;;;;;;;18.55;99.02;97844.41;5041719;28;20391;-76
2023/07/30 05:55:23;;;;;;;6.28;5.13;;;;;;;18.62;99.56;97853.00;5053159;28;20033;-76
2023/07/30 05:57:48;;;;;;;6.72;5.18;;;;;;;18.51;99.78;97846.16;5028059;28;20035;-76
2023/07/30 06:00:14;;;;;;;7.75;4.95;;;;;;;18.53;98.38;97843.09;5046524;28;20073;-76
2023/07/30 06:02:39;;;;;;;5.63;5.00;;;;;;;18.73;97.76;97848.16;5032830;28;20029;-76
2023/07/30 06:05:05;;;;;;;5.15;4.65;;;;;;;18.65;97.63;97851.59;5031722;28;20488;-76
2023/07/30 06:07:30;;;;;;;6.30;4.75;;;;;;;18.75;97.42;97845.94;5044715;28;20182;-78
2023/07/30 06:09:55;;;;;;;5.53;4.85;;;;;;;19.11;96.52;97849.47;5031910;28;20044;-76
2023/07/30 06:12:21;;;;;;;4.57;3.97;;;;;;;19.17;94.26;97842.81;5061569;28;20064;-75
2023/07/30 06:14:46;;;;;;;4.95;4.30;;;;;;;19.34;92.48;97855.78;5047730;28;20443;-75
2023/07/30 06:17:11;;;;;;;6.15;4.40;;;;;;;19.06;93.86;97867.91;5028388;28;20029;-76
2023/07/30 06:19:38;;;;;;;5.43;4.22;;;;;;;18.98;94.68;97877.63;5047057;28;20071;-76
2023/07/30 06:22:03;;;;;;;6.68;4.55;;;;;;;19.04;95.22;97881.84;5052924;28;20120;-76
2023/07/30 06:24:29;;;;;;;4.70;4.30;;;;;;;19.11;93.15;97865.84;5039045;28;20163;-76
2023/07/30 06:26:54;;;;;;;5.35;4.65;;;;;;;19.28;93.76;97865.19;5028164;28;20481;-76
2023/07/30 06:29:19;;;;;;;4.55;4.15;;;;;;;19.61;91.21;97874.00;5047065;28;20044;-76
2023/07/30 06:31:45;;;;;;;6.00;4.75;;;;;;;19.32;90.91;97858.81;5040406;28;20028;-75
2023/07/30 06:34:10;;;;;;;6.47;4.20;;;;;;;19.43;89.20;97864.88;5034625;28;20029;-76
2023/07/30 06:36:36;;;;;;;4.75;4.35;;;;;;;20.12;86.71;97857.94;5040523;28;20533;-76
2023/07/30 06:39:01;;;;;;;4.80;4.32;;;;;;;20.00;88.82;97871.38;5038909;28;20042;-76
2023/07/30 06:41:26;;;;;;;6.43;5.00;;;;;;;19.15;89.22;97883.25;5045030;28;20534;-76
2023/07/30 06:43:52;;;;;;;5.43;4.85;;;;;;;19.23;89.51;97871.59;5046306;28;20056;-74
2023/07/30 06:46:17;;;;;;;9.38;4.70;;;;;;;19.00;90.54;97883.59;5046140;28;20030;-76
2023/07/30 06:48:43;;;;;;;5.72;4.57;;;;;;;19.21;89.95;97882.00;5046351;28;20500;-76
2023/07/30 06:51:09;;;;;;;5.18;4.65;;;;;;;19.33;88.44;97885.03;5028561;28;20021;-76
2023/07/30 06:53:34;;;;;;;4.82;4.30;;;;;;;19.23;88.12;97885.25;5045853;28;20041;-75
2023/07/30 06:56:00;;;;;;;4.90;4.40;;;;;;;19.28;87.56;97887.88;5056361;28;20024;-74
2023/07/30 06:58:25;;;;;;;6.75;4.78;;;;;;;19.03;87.53;97896.63;5038841;28;20507;-76
2023/07/30 07:00:51;;;;;;;5.80;4.35;;;;;;;19.31;87.58;97892.72;5045296;28;20040;-76
2023/07/30 07:03:17;;;;;;;6.85;4.30;;;;;;;19.30;86.63;97890.28;5032189;28;20133;-76
2023/07/30 07:05:42;;;;;;;5.38;4.60;;;;;;;19.52;86.79;97886.81;5046477;28;20044;-76
2023/07/30 07:08:08;;;;;;;4.90;4.45;;;;;;;19.80;84.51;97882.84;5031397;28;20484;-75
2023/07/30 07:10:33;;;;;;;4.85;3.83;;;;;;;20.11;82.87;97882.88;5044489;28;20082;-75
2023/07/30 07:12:58;;;;;;;5.43;4.40;;;;;;;20.45;82.53;97878.41;5028689;28;20484;-76
2023/07/30 07:15:24;;;;;;;4.78;4.20;;;;;;;20.30;80.87;97873.34;5046549;28;20021;-76
2023/07/30 07:17:49;;;;;;;3.97;3.67;;;;;;;20.16;82.34;97864.41;5047205;28;20037;-75
2023/07/30 07:20:14;;;;;;;8.82;4.05;;;;;;;20.09;82.33;97866.78;5045276;28;20021;-75
2023/07/30 07:22:40;;;;;;;5.47;4.03;;;;;;;20.05;82.01;97873.19;5044659;28;20029;-76
2023/07/30 07:25:05;;;;;;;4.47;3.80;;;;;;;19.84;82.37;97873.69;5021653;28;20379;-75
2023/07/30 07:27:31;;;;;;;5.32;4.00;;;;;;;19.86;82.07;97876.13;5038793;28;20026;-76
2023/07/30 07:29:56;;;;;;;3.88;3.58;;;;;;;19.99;82.34;97872.50;5044819;28;20039;-75
2023/07/30 07:32:21;;;;;;;4.43;3.97;;;;;;;20.11;81.64;97872.75;5027779;28;20094;-76
2023/07/30 07:34:50;;;;;;;4.68;4.07;;;;;;;20.57;81.87;97873.13;5037865;28;20032;-76
2023/07/30 07:37:16;;;;;;;4.82;3.55;;;;;;;21.28;77.72;97873.81;5038003;28;20049;-76
2023/07/30 07:39:43;;;;;;;4.63;3.78;;;;;;;20.96;78.50;97872.25;5037864;28;20112;-76
2023/07/30 07:42:08;;;;;;;9.02;4.00;;;;;;;20.85;77.82;97870.97;5037768;28;20099;-75
2023/07/30 07:44:34;;;;;;;3.72;3.35;;;;;;;20.61;78.50;97871.38;5037730;28;20020;-76
2023/07/30 07:46:59;;;;;;;3.90;3.25;;;;;;;20.57;77.15;97875.06;5051218;28;20037;-75
2023/07/30 07:49:24;;;;;;;3.88;3.30;;;;;;;20.37;78.15;97873.72;5034436;28;20033;-75
2023/07/30 07:51:50;;;;;;;3.42;3.13;;;;;;;20.51;77.70;97877.13;5050962;28;20084;-76
2023/07/30 07:54:16;;;;;;;5.78;3.10;;;;;;;20.76;77.76;97878.34;5037353;28;20025;-76
2023/07/30 07:56:41;;;;;;;4.53;3.08;;;;;;;20.88;78.32;97875.00;5005429;28;20041;-76
2023/07/30 07:59:07;;;;;;;4.45;2.90;;;;;;;21.47;75.38;97876.22;5045633;28;20466;-76
2023/07/30 08:01:32;;;;;;;5.43;3.00;;;;;;;21.43;74.53;97873.31;5014485;28;20042;-76
2023/07/30 08:03:58;;;;;;;4.20;2.80;;;;;;;21.97;73.49;97869.09;5060549;28;20032;-75
2023/07/30 08:06:23;;;;;;;3.80;2.70;;;;;;;21.55;71.46;97865.25;5044480;28;20076;-76
2023/07/30 08:08:49;;;;;;;3.15;2.15;;;;;;;21.28;70.53;97880.06;5037649;28;20059;-76
2023/07/30 08:11:14;;;;;;;2.65;2.45;;;;;;;21.08;70.17;97877.16;5050644;28;20094;-76
2023/07/30 08:13:40;;;;;;;2.60;2.40;;;;;;;21.34;70.31;97873.31;5020595;28;20032;-76
2023/07/30 08:16:05;;;;;;;2.63;2.40;;;;;;;21.11;72.48;97874.59;5021680;28;20037;-76
2023/07/30 08:18:30;;;;;;;2.80;2.60;;;;;;;21.38;72.96;97876.22;5060975;28;20032;-76
2023/07/30 08:20:56;;;;;;;6.00;2.58;;;;;;;20.94;70.89;97879.19;5026497;28;20174;-76
2023/07/30 08:23:21;;;;;;;2.75;2.47;;;;;;;21.22;71.70;97886.84;5036893;28;20472;-76
2023/07/30 08:25:47;;;;;;;2.90;2.58;;;;;;;21.10;71.53;97883.09;5038752;28;20049;-76
2023/07/30 08:28:12;;;;;;;2.95;2.65;;;;;;;21.22;71.06;97881.38;5011036;28;20040;-76
2023/07/30 08:30:38;;;;;;;3.80;2.78;;;;;;;21.45;71.47;97883.97;5043111;28;20029;-76
2023/07/30 08:33:03;;;;;;;3.20;2.90;;;;;;;21.61;71.16;97877.66;5036730;28;20021;-76
2023/07/30 08:35:29;;;;;;;2.78;2.58;;;;;;;21.63;72.25;97869.94;5022278;28;20108;-75
2023/07/30 08:37:55;;;;;;;3.13;2.83;;;;;;;21.08;72.29;97885.38;5044110;28;20021;-75
2023/07/30 08:40:23;;;;;;;3.70;2.60;;;;;;;21.17;72.08;97880.69;5041668;28;20130;-75
2023/07/30 08:42:50;;;;;;;3.22;2.50;;;;;;;21.16;73.19;97887.31;5045237;28;20116;-75
2023/07/30 08:45:15;;;;;;;2.40;2.20;;;;;;;21.25;70.92;97885.41;5022688;28;20392;-75
2023/07/30 08:47:41;;;;;;;2.88;2.35;;;;;;;21.26;68.48;97892.50;5049035;28;20036;-75
2023/07/30 08:50:06;;;;;;;2.10;1.85;;;;;;;21.36;66.73;97878.47;5039841;28;20064;-75
2023/07/30 08:52:32;;;;;;;2.60;2.00;;;;;;;21.66;67.40;97885.72;5026815;28;20041;-76
2023/07/30 08:55:00;;;;;;;2.40;2.00;;;;;;;21.58;67.61;97872.84;5025461;28;20104;-76
2023/07/30 08:57:27;;;;;;;3.25;2.03;;;;;;;21.89;66.38;97878.94;5044906;28;20025;-76
2023/07/30 09:00:11;;;;;;;3.17;2.17;;;;;;;21.84;64.40;97895.56;5030020;28;20033;-76
2023/07/30 09:02:55;;;;;;;2.67;1.90;;;;;;;21.71;64.19;97903.94;5021550;28;20517;-76
2023/07/30 09:05:21;;;;;;;2.25;1.67;;;;;;;21.67;63.83;97887.34;5049924;28;20120;-76
2023/07/30 09:07:46;;;;;;;1.92;1.80;;;;;;;21.61;62.91;97879.59;5051191;28;20112;-76
2023/07/30 09:10:12;;;;;;;3.25;1.50;;;;;;;21.82;63.43;97884.09;5036341;28;20479;-76
2023/07/30 09:12:38;;;;;;;1.95;1.60;;;;;;;22.16;62.24;97874.22;5049546;28;20052;-77
2023/07/30 09:15:06;;;;;;;1.73;1.60;;;;;;;22.30;61.82;97885.78;5036444;28;20037;-76
2023/07/30 09:17:35;;;;;;;1.65;1.55;;;;;;;22.30;61.12;97888.53;5039024;28;20025;-76
2023/07/30 09:20:03;;;;;;;1.85;1.65;;;;;;;21.99;60.74;97884.09;5043366;28;20128;-76
2023/07/30 09:22:30;;;;;;;1.83;1.50;;;;;;;22.55;60.84;97882.13;5041483;28;20021;-76
2023/07/30 09:24:56;;;;;;;1.70;1.52;;;;;;;22.67;61.65;97872.13;5036267;28;20360;-76
2023/07/30 09:27:25;;;;;;;1.98;1.77;;;;;;;22.19;63.23;97877.13;5021675;28;20095;-76
2023/07/30 09:29:57;;;;;;;2.88;1.73;;;;;;;21.46;64.58;97874.59;5043203;28;20045;-76
2023/07/30 09:32:31;;;;;;;1.95;1.83;;;;;;;21.75;64.79;97867.31;5042877;28;20075;-76
2023/07/30 09:35:07;;;;;;;3.33;2.22;;;;;;;21.97;63.38;97875.41;5033012;28;20083;-76
2023/07/30 09:37:40;;;;;;;2.45;1.90;;;;;;;23.19;64.63;97867.13;5031632;28;20498;-76
2023/07/30 09:40:14;;;;;;;2.50;2.03;;;;;;;23.06;65.10;97862.66;5040191;28;20093;-76
2023/07/30 09:42:45;;;;;;;2.70;1.80;;;;;;;22.17;63.06;97867.59;5022101;28;20037;-76
2023/07/30 09:45:19;;;;;;;2.03;1.83;;;;;;;22.52;63.71;97877.31;5053248;28;20116;-76
2023/07/30 09:47:52;;;;;;;2.47;2.00;;;;;;;22.33;66.79;97877.72;5032832;28;20041;-76
2023/07/30 09:50:18;;;;;;;3.22;1.92;;;;;;;23.09;66.96;97872.19;5036237;28;20044;-76
2023/07/30 09:52:43;;;;;;;3.08;2.10;;;;;;;22.88;66.74;97872.16;5049177;28;20028;-76
2023/07/30 09:55:09;;;;;;;2.10;1.75;;;;;;;22.31;66.35;97873.69;5032808;28;20040;-76
2023/07/30 09:57:35;;;;;;;3.50;1.85;;;;;;;22.40;62.82;97879.97;5036232;28;20044;-76
2023/07/30 10:00:03;;;;;;;2.83;2.10;;;;;;;22.65;63.92;97876.31;5035908;28;20087;-76
2023/07/30 10:02:33;;;;;;;2.10;1.90;;;;;;;22.77;65.02;97876.44;5042023;28;20026;-75
2023/07/30 10:04:59;;;;;;;1.80;1.70;;;;;;;22.46;65.35;97875.88;5042980;28;20048;-76
2023/07/30 10:07:26;;;;;;;2.63;2.03;;;;;;;22.58;64.11;97873.25;5037061;28;20364;-76
2023/07/30 10:09:58;;;;;;;2.97;1.90;;;;;;;22.66;63.40;97872.44;5035746;28;20348;-76
2023/07/30 10:12:27;;;;;;;3.15;1.67;;;;;;;22.74;63.99;97871.59;5025313;28;20076;-75
2023/07/30 10:14:52;;;;;;;2.58;1.88;;;;;;;23.03;62.40;97874.34;5046136;28;20032;-77
2023/07/30 10:17:18;;;;;;;1.90;1.40;;;;;;;22.72;61.43;97873.88;5025646;28;20041;-76
2023/07/30 10:19:46;;;;;;;1.85;1.65;;;;;;;22.60;60.78;97876.47;5039568;28;20104;-76
2023/07/30 10:22:12;;;;;;;1.90;1.80;;;;;;;22.81;63.93;97871.06;5027146;28;20052;-77
2023/07/30 10:24:38;;;;;;;2.10;1.90;;;;;;;23.30;64.46;97873.81;5046050;28;20467;-76
2023/07/30 10:27:09;;;;;;;2.13;1.92;;;;;;;22.87;62.67;97869.75;5041837;28;20072;-76
2023/07/30 10:29:35;;;;;;;3.05;2.15;;;;;;;23.02;63.20;97878.22;5050014;28;20050;-76
2023/07/30 10:32:02;;;;;;;3.13;1.88;;;;;;;22.52;64.18;97874.59;5047626;28;20021;-76
2023/07/30 10:34:44;;;;;;;3.53;1.98;;;;;;;21.86;64.80;97879.63;5008470;28;20403;-76
2023/07/30 10:37:09;;;;;;;2.20;2.00;;;;;;;22.32;65.02;97870.63;5025616;28;20372;-76
2023/07/30 10:39:34;;;;;;;3.67;1.92;;;;;;;22.58;64.18;97867.75;5046678;28;20028;-76
2023/07/30 10:42:00;;;;;;;3.20;1.75;;;;;;;22.35;62.61;97869.16;5027638;28;20037;-76
2023/07/30 10:44:33;;;;;;;2.10;1.63;;;;;;;22.47;62.06;97856.34;5033753;28;20026;-77
2023/07/30 10:47:00;;;;;;;4.68;1.70;;;;;;;22.39;61.30;97867.34;5045595;28;20049;-77
2023/07/30 10:49:25;;;;;;;2.80;1.60;;;;;;;22.40;60.78;97869.78;5029521;28;20045;-77
2023/07/30 10:51:53;;;;;;;2.85;1.55;;;;;;;22.43;59.45;97876.53;5028574;28;20075;-76
2023/07/30 10:54:18;;;;;;;1.85;1.60;;;;;;;23.03;59.38;97868.03;5038767;28;20037;-77
2023/07/30 10:56:44;;;;;;;1.60;1.50;;;;;;;22.66;59.60;97869.72;5006690;28;20076;-77
2023/07/30 10:59:10;;;;;;;1.77;1.60;;;;;;;22.90;58.94;97880.88;5045640;28;20025;-76
2023/07/30 11:01:38;;;;;;;1.58;1.38;;;;;;;22.63;57.91;97878.59;5045194;28;20557;-77
2023/07/30 11:04:06;;;;;;;1.75;1.52;;;;;;;22.47;59.28;97878.31;5038739;28;20021;-76
2023/07/30 11:06:32;;;;;;;2.05;1.67;;;;;;;22.59;59.51;97881.16;5053071;28;20048;-76
2023/07/30 11:08:57;;;;;;;2.38;1.50;;;;;;;22.02;60.80;97882.63;5038826;28;20545;-77
2023/07/30 11:11:24;;;;;;;2.08;1.50;;;;;;;21.44;62.65;97904.25;5038566;28;20037;-76
2023/07/30 11:13:49;;;;;;;1.85;1.40;;;;;;;21.27;63.64;97894.91;5044780;28;20498;-77
2023/07/30 11:16:15;;;;;;;2.50;1.90;;;;;;;21.14;65.57;97911.50;5028854;28;20037;-77
2023/07/30 11:18:42;;;;;;;2.75;1.60;;;;;;;20.83;69.46;97897.03;5022405;28;20021;-76
2023/07/30 11:21:08;;;;;;;2.00;1.52;;;;;;;20.70;69.43;97911.66;5039497;28;20408;-76
2023/07/30 11:23:35;;;;;;;6.50;1.50;;;;;;;20.70;69.42;97917.13;5051200;28;20021;-76
2023/07/30 11:26:05;;;;;;;1.95;1.85;;;;;;;20.52;70.64;97906.09;5038369;28;20049;-76